Time,TemperatureF,DewpointF,PressureIn,WindDirection,WindDirectionDegrees,WindSpeedMPH,WindSpeedGustMPH,Humidity,HourlyPrecipIn,Conditions,Clouds,dailyrainin,SolarRadiationWatts/m^2,SoftwareType,DateUTC
2013-08-08 00:02:00,63.8,56.8,29.86,WNW,300,0.0,0.0,78,0.00,,,0.00,0,Wunderground v.1.15,2013-08-08 07:02:00,
2013-08-08 00:07:00,63.7,56.7,29.86,WNW,299,0.0,0.0,78,0.00,,,0.00,0,Wunderground v.1.15,2013-08-08 07:07:00,
2013-08-08 00:12:00,63.6,57.0,29.86,WNW,299,0.0,0.0,79,0.00,,,0.00,0,Wunderground v.1.15,2013-08-08 07:12:00,
2013-08-08 00:17:00,63.5,57.2,29.86,WNW,300,0.0,0.0,80,0.00,,,0.00,0,Wunderground v.1.15,2013-08-08 07:17:00,
2013-08-08 00:23:00,63.4,57.1,29.86,WNW,300,0.0,0.0,80,0.00,,,0.00,0,Wunderground v.1.15,2013-08-08 07:23:00,
2013-08-08 00:28:00,63.3,57.0,29.86,WNW,299,0.0,0.0,80,0.00,,,0.00,0,Wunderground v.1.15,2013-08-08 07:28:00,
2013-08-08 00:33:00,63.1,56.5,29.86,WNW,299,0.0,0.0,79,0.00,,,0.00,0,Wunderground v.1.15,2013-08-08 07:33:00,
2013-08-08 00:38:00,62.9,56.3,29.86,WNW,300,0.0,0.0,79,0.00,,,0.00,0,Wunderground v.1.15,2013-08-08 07:38:00,
2013-08-08 00:43:00,62.6,56.0,29.86,WNW,300,0.0,0.0,79,0.00,,,0.00,0,Wunderground v.1.15,2013-08-08 07:43:00,
2013-08-08 00:49:00,62.4,55.4,29.86,WNW,300,0.0,0.0,78,0.00,,,0.00,0,Wunderground v.1.15,2013-08-08 07:49:00,
2013-08-08 00:54:00,62.3,55.7,29.86,WNW,300,0.0,0.0,79,0.00,,,0.00,0,Wunderground v.1.15,2013-08-08 07:54:00,
2013-08-08 00:59:00,62.3,55.7,29.86,WNW,300,0.0,0.0,79,0.00,,,0.00,0,Wunderground v.1.15,2013-08-08 07:59:00,
2013-08-08 01:04:00,62.3,56.0,29.86,WNW,300,0.0,0.0,80,0.00,,,0.00,0,Wunderground v.1.15,2013-08-08 08:04:00,
2013-08-08 01:10:00,62.4,56.1,29.86,WNW,300,0.0,0.0,80,0.00,,,0.00,0,Wunderground v.1.15,2013-08-08 08:10:00,
2013-08-08 01:15:00,62.4,55.8,29.85,WNW,300,2.0,2.0,79,0.00,,,0.00,0,Wunderground v.1.15,2013-08-08 08:15:00,
2013-08-08 01:20:00,62.3,55.7,29.85,WNW,300,0.0,0.0,79,0.00,,,0.00,0,Wunderground v.1.15,2013-08-08 08:20:00,
2013-08-08 01:26:00,62.4,55.8,29.85,WNW,300,0.0,0.0,79,0.00,,,0.00,0,Wunderground v.1.15,2013-08-08 08:26:00,
2013-08-08 01:31:00,62.4,55.8,29.85,WNW,300,0.0,0.0,79,0.00,,,0.00,0,Wunderground v.1.15,2013-08-08 08:31:00,
2013-08-08 01:36:00,62.5,55.9,29.85,WNW,299,0.0,0.0,79,0.00,,,0.00,0,Wunderground v.1.15,2013-08-08 08:36:00,
2013-08-08 01:42:00,62.5,55.9,29.85,WNW,299,0.0,0.0,79,0.00,,,0.00,0,Wunderground v.1.15,2013-08-08 08:42:00,
2013-08-08 01:47:00,62.6,56.0,29.85,WNW,300,0.0,0.0,79,0.00,,,0.00,0,Wunderground v.1.15,2013-08-08 08:47:00,
2013-08-08 01:52:00,62.7,56.1,29.85,WNW,300,0.0,0.0,79,0.00,,,0.00,0,Wunderground v.1.15,2013-08-08 08:52:00,
2013-08-08 01:57:00,62.7,55.7,29.85,WNW,300,0.0,0.0,78,0.00,,,0.00,0,Wunderground v.1.15,2013-08-08 08:57:00,
2013-08-08 02:02:00,62.7,56.1,29.85,WNW,300,0.0,0.0,79,0.00,,,0.00,0,Wunderground v.1.15,2013-08-08 09:02:00,
2013-08-08 02:07:00,62.7,56.4,29.85,WNW,299,0.0,0.0,80,0.00,,,0.00,0,Wunderground v.1.15,2013-08-08 09:07:00,
2013-08-08 02:12:00,62.5,56.2,29.85,WNW,299,0.0,0.0,80,0.00,,,0.00,0,Wunderground v.1.15,2013-08-08 09:12:00,
2013-08-08 02:17:00,62.3,56.4,29.84,WNW,300,0.0,0.0,81,0.00,,,0.00,0,Wunderground v.1.15,2013-08-08 09:17:00,
2013-08-08 02:22:00,62.1,56.2,29.84,WNW,299,0.0,0.0,81,0.00,,,0.00,0,Wunderground v.1.15,2013-08-08 09:22:00,
2013-08-08 02:27:00,61.9,56.0,29.84,WNW,299,0.0,0.0,81,0.00,,,0.00,0,Wunderground v.1.15,2013-08-08 09:27:00,
2013-08-08 02:32:00,61.7,56.1,29.84,WNW,299,0.0,0.0,82,0.00,,,0.00,0,Wunderground v.1.15,2013-08-08 09:32:00,
2013-08-08 02:37:00,61.5,55.6,29.84,WNW,300,0.0,0.0,81,0.00,,,0.00,0,Wunderground v.1.15,2013-08-08 09:37:00,
2013-08-08 02:42:00,61.3,55.4,29.84,WNW,299,0.0,0.0,81,0.00,,,0.00,0,Wunderground v.1.15,2013-08-08 09:42:00,
2013-08-08 02:47:00,61.2,55.7,29.84,WNW,300,0.0,0.0,82,0.00,,,0.00,0,Wunderground v.1.15,2013-08-08 09:47:00,
2013-08-08 02:52:00,61.0,55.8,29.84,WNW,299,0.0,0.0,83,0.00,,,0.00,0,Wunderground v.1.15,2013-08-08 09:52:00,
2013-08-08 02:57:00,60.9,55.7,29.84,WNW,300,0.0,0.0,83,0.00,,,0.00,0,Wunderground v.1.15,2013-08-08 09:57:00,
2013-08-08 03:02:00,60.7,55.8,29.85,WNW,300,0.0,0.0,84,0.00,,,0.00,0,Wunderground v.1.15,2013-08-08 10:02:00,
2013-08-08 03:07:00,60.6,56.1,29.85,WNW,300,0.0,0.0,85,0.00,,,0.00,0,Wunderground v.1.15,2013-08-08 10:07:00,
2013-08-08 03:12:00,60.4,55.9,29.85,WNW,299,0.0,0.0,85,0.00,,,0.00,0,Wunderground v.1.15,2013-08-08 10:12:00,
2013-08-08 03:17:00,60.3,55.8,29.85,WNW,300,0.0,0.0,85,0.00,,,0.00,0,Wunderground v.1.15,2013-08-08 10:17:00,
2013-08-08 03:22:00,60.1,55.6,29.85,WNW,299,0.0,0.0,85,0.00,,,0.00,0,Wunderground v.1.15,2013-08-08 10:22:00,
2013-08-08 03:27:00,59.9,55.4,29.85,WNW,300,0.0,0.0,85,0.00,,,0.00,0,Wunderground v.1.15,2013-08-08 10:27:00,
2013-08-08 03:32:00,59.7,55.2,29.85,WNW,300,0.0,0.0,85,0.00,,,0.00,0,Wunderground v.1.15,2013-08-08 10:32:00,
2013-08-08 03:37:00,59.5,55.0,29.85,WNW,299,0.0,0.0,85,0.00,,,0.00,0,Wunderground v.1.15,2013-08-08 10:37:00,
2013-08-08 03:42:00,59.4,55.2,29.85,WNW,300,0.0,0.0,86,0.00,,,0.00,0,Wunderground v.1.15,2013-08-08 10:42:00,
2013-08-08 03:47:00,59.2,55.0,29.85,WNW,299,0.0,0.0,86,0.00,,,0.00,0,Wunderground v.1.15,2013-08-08 10:47:00,
2013-08-08 03:52:00,59.0,54.8,29.85,WNW,300,0.0,0.0,86,0.00,,,0.00,0,Wunderground v.1.15,2013-08-08 10:52:00,
2013-08-08 03:57:00,59.0,55.1,29.85,WNW,299,0.0,0.0,87,0.00,,,0.00,0,Wunderground v.1.15,2013-08-08 10:57:00,
2013-08-08 04:02:00,59.0,55.1,29.85,WNW,300,0.0,0.0,87,0.00,,,0.00,0,Wunderground v.1.15,2013-08-08 11:02:00,
2013-08-08 04:07:00,58.9,55.0,29.85,WNW,299,0.0,0.0,87,0.00,,,0.00,0,Wunderground v.1.15,2013-08-08 11:07:00,
2013-08-08 04:12:00,58.7,54.8,29.85,WNW,299,0.0,0.0,87,0.00,,,0.00,0,Wunderground v.1.15,2013-08-08 11:12:00,
2013-08-08 04:17:00,58.6,54.7,29.86,WNW,299,0.0,0.0,87,0.00,,,0.00,0,Wunderground v.1.15,2013-08-08 11:17:00,
2013-08-08 04:22:00,58.6,55.1,29.86,WNW,300,0.0,0.0,88,0.00,,,0.00,0,Wunderground v.1.15,2013-08-08 11:22:00,
2013-08-08 04:27:00,58.5,55.0,29.86,WNW,300,0.0,0.0,88,0.00,,,0.00,0,Wunderground v.1.15,2013-08-08 11:27:00,
2013-08-08 04:32:00,58.4,54.9,29.85,WNW,299,0.0,0.0,88,0.00,,,0.00,0,Wunderground v.1.15,2013-08-08 11:32:00,
2013-08-08 04:37:00,58.4,54.9,29.86,WNW,300,0.0,0.0,88,0.00,,,0.00,0,Wunderground v.1.15,2013-08-08 11:37:00,
2013-08-08 04:42:00,58.4,54.9,29.86,WNW,299,0.0,0.0,88,0.00,,,0.00,0,Wunderground v.1.15,2013-08-08 11:42:00,
2013-08-08 04:47:00,58.4,55.2,29.86,WNW,299,0.0,0.0,89,0.00,,,0.00,0,Wunderground v.1.15,2013-08-08 11:47:00,
2013-08-08 04:52:00,58.3,55.1,29.86,WNW,300,0.0,0.0,89,0.00,,,0.00,0,Wunderground v.1.15,2013-08-08 11:52:00,
2013-08-08 04:57:00,58.2,55.0,29.86,WNW,299,0.0,0.0,89,0.00,,,0.00,0,Wunderground v.1.15,2013-08-08 11:57:00,
2013-08-08 05:02:00,58.1,54.9,29.86,WNW,300,0.0,0.0,89,0.00,,,0.00,0,Wunderground v.1.15,2013-08-08 12:02:00,
2013-08-08 05:07:00,58.0,54.8,29.86,WNW,299,0.0,0.0,89,0.00,,,0.00,0,Wunderground v.1.15,2013-08-08 12:07:00,
2013-08-08 05:12:00,57.9,54.7,29.86,WNW,300,0.0,0.0,89,0.00,,,0.00,0,Wunderground v.1.15,2013-08-08 12:12:00,
2013-08-08 05:17:00,57.8,54.6,29.86,WNW,299,0.0,0.0,89,0.00,,,0.00,0,Wunderground v.1.15,2013-08-08 12:17:00,
2013-08-08 05:22:00,57.7,54.5,29.86,WNW,299,0.0,0.0,89,0.00,,,0.00,0,Wunderground v.1.15,2013-08-08 12:22:00,
2013-08-08 05:27:00,57.6,54.4,29.87,WNW,300,0.0,0.0,89,0.00,,,0.00,0,Wunderground v.1.15,2013-08-08 12:27:00,
2013-08-08 05:32:00,57.5,54.3,29.87,WNW,299,0.0,0.0,89,0.00,,,0.00,0,Wunderground v.1.15,2013-08-08 12:32:00,
2013-08-08 05:37:00,57.4,54.2,29.87,WNW,300,0.0,0.0,89,0.00,,,0.00,0,Wunderground v.1.15,2013-08-08 12:37:00,
2013-08-08 05:42:00,57.3,54.1,29.87,WNW,299,0.0,0.0,89,0.00,,,0.00,0,Wunderground v.1.15,2013-08-08 12:42:00,
2013-08-08 05:47:00,57.2,54.0,29.88,WNW,299,0.0,0.0,89,0.00,,,0.00,7,Wunderground v.1.15,2013-08-08 12:47:00,
2013-08-08 05:52:00,57.1,53.9,29.88,WNW,299,0.0,0.0,89,0.00,,,0.00,9,Wunderground v.1.15,2013-08-08 12:52:00,
2013-08-08 05:57:00,57.0,53.8,29.88,WNW,299,0.0,0.0,89,0.00,,,0.00,12,Wunderground v.1.15,2013-08-08 12:57:00,
2013-08-08 06:02:00,57.0,54.1,29.88,WNW,300,0.0,0.0,90,0.00,,,0.00,18,Wunderground v.1.15,2013-08-08 13:02:00,
2013-08-08 06:07:00,57.0,54.1,29.88,WNW,299,0.0,0.0,90,0.00,,,0.00,30,Wunderground v.1.15,2013-08-08 13:07:00,
2013-08-08 06:12:00,57.0,54.1,29.88,WNW,300,0.0,0.0,90,0.00,,,0.00,40,Wunderground v.1.15,2013-08-08 13:12:00,
2013-08-08 06:17:00,57.2,54.3,29.88,WNW,299,0.0,0.0,90,0.00,,,0.00,53,Wunderground v.1.15,2013-08-08 13:17:00,
2013-08-08 06:22:00,57.5,54.9,29.89,WNW,299,0.0,0.0,91,0.00,,,0.00,67,Wunderground v.1.15,2013-08-08 13:22:00,
2013-08-08 06:27:00,57.9,55.3,29.89,WNW,299,0.0,0.0,91,0.00,,,0.00,83,Wunderground v.1.15,2013-08-08 13:27:00,
2013-08-08 06:32:00,58.3,55.7,29.89,WNW,299,0.0,0.0,91,0.00,,,0.00,97,Wunderground v.1.15,2013-08-08 13:32:00,
2013-08-08 06:37:00,58.9,56.6,29.89,WNW,299,0.0,0.0,92,0.00,,,0.00,114,Wunderground v.1.15,2013-08-08 13:37:00,
2013-08-08 06:42:00,59.1,56.8,29.89,WNW,300,0.0,0.0,92,0.00,,,0.00,134,Wunderground v.1.15,2013-08-08 13:42:00,
2013-08-08 06:47:00,59.6,57.3,29.89,WNW,299,0.0,0.0,92,0.00,,,0.00,153,Wunderground v.1.15,2013-08-08 13:47:00,
2013-08-08 06:52:00,60.0,57.4,29.89,WNW,300,0.0,0.0,91,0.00,,,0.00,172,Wunderground v.1.15,2013-08-08 13:52:00,
2013-08-08 06:57:00,60.5,57.9,29.89,WNW,300,0.0,0.0,91,0.00,,,0.00,193,Wunderground v.1.15,2013-08-08 13:57:00,
2013-08-08 07:02:00,61.0,58.4,29.89,WNW,300,0.0,1.0,91,0.00,,,0.00,216,Wunderground v.1.15,2013-08-08 14:02:00,
2013-08-08 07:07:00,61.5,58.5,29.89,WNW,300,0.0,1.0,90,0.00,,,0.00,234,Wunderground v.1.15,2013-08-08 14:07:00,
2013-08-08 07:12:00,62.1,59.1,29.89,WNW,300,0.0,0.0,90,0.00,,,0.00,253,Wunderground v.1.15,2013-08-08 14:12:00,
2013-08-08 07:17:00,62.7,59.4,29.89,WNW,300,0.0,1.0,89,0.00,,,0.00,276,Wunderground v.1.15,2013-08-08 14:17:00,
2013-08-08 07:22:00,63.3,59.7,29.89,WNW,300,0.0,0.0,88,0.00,,,0.00,294,Wunderground v.1.15,2013-08-08 14:22:00,
2013-08-08 07:27:00,64.0,60.1,29.89,WNW,300,0.0,0.0,87,0.00,,,0.00,313,Wunderground v.1.15,2013-08-08 14:27:00,
2013-08-08 07:32:00,64.8,60.5,29.89,WNW,300,0.0,0.0,86,0.00,,,0.00,332,Wunderground v.1.15,2013-08-08 14:32:00,
2013-08-08 07:37:00,65.4,60.1,29.89,WNW,300,0.0,0.0,83,0.00,,,0.00,348,Wunderground v.1.15,2013-08-08 14:37:00,
2013-08-08 07:42:00,66.1,60.1,29.89,WNW,299,0.0,0.0,81,0.00,,,0.00,364,Wunderground v.1.15,2013-08-08 14:42:00,
2013-08-08 07:47:00,67.0,60.6,29.89,WNW,300,0.0,0.0,80,0.00,,,0.00,387,Wunderground v.1.15,2013-08-08 14:47:00,
2013-08-08 07:52:00,67.7,60.6,29.89,WNW,300,0.0,0.0,78,0.00,,,0.00,406,Wunderground v.1.15,2013-08-08 14:52:00,
2013-08-08 07:57:00,68.4,60.5,29.89,WNW,299,0.0,0.0,76,0.00,,,0.00,424,Wunderground v.1.15,2013-08-08 14:57:00,
2013-08-08 08:02:00,69.2,61.3,29.89,WNW,300,0.0,0.0,76,0.00,,,0.00,443,Wunderground v.1.15,2013-08-08 15:02:00,
2013-08-08 08:07:00,70.0,60.9,29.89,WNW,299,0.0,0.0,73,0.00,,,0.00,461,Wunderground v.1.15,2013-08-08 15:07:00,
2013-08-08 08:12:00,70.8,61.3,29.89,WNW,300,0.0,0.0,72,0.00,,,0.00,476,Wunderground v.1.15,2013-08-08 15:12:00,
2013-08-08 08:17:00,71.6,62.1,29.89,WNW,300,0.0,0.0,72,0.00,,,0.00,496,Wunderground v.1.15,2013-08-08 15:17:00,
2013-08-08 08:22:00,72.3,61.6,29.88,WNW,300,0.0,0.0,69,0.00,,,0.00,513,Wunderground v.1.15,2013-08-08 15:22:00,
2013-08-08 08:27:00,72.9,61.3,29.89,WNW,300,0.0,0.0,67,0.00,,,0.00,531,Wunderground v.1.15,2013-08-08 15:27:00,
2013-08-08 08:32:00,73.5,61.4,29.89,WNW,300,0.0,0.0,66,0.00,,,0.00,548,Wunderground v.1.15,2013-08-08 15:32:00,
2013-08-08 08:37:00,74.1,62.0,29.89,WNW,300,0.0,0.0,66,0.00,,,0.00,566,Wunderground v.1.15,2013-08-08 15:37:00,
2013-08-08 08:42:00,74.7,61.3,29.89,WNW,299,0.0,0.0,63,0.00,,,0.00,584,Wunderground v.1.15,2013-08-08 15:42:00,
2013-08-08 08:47:00,75.2,60.4,29.89,WNW,300,0.0,0.0,60,0.00,,,0.00,594,Wunderground v.1.15,2013-08-08 15:47:00,
2013-08-08 08:52:00,75.8,60.0,29.89,WNW,300,0.0,0.0,58,0.00,,,0.00,613,Wunderground v.1.15,2013-08-08 15:52:00,
2013-08-08 08:57:00,76.4,60.0,29.89,WNW,300,0.0,0.0,57,0.00,,,0.00,629,Wunderground v.1.15,2013-08-08 15:57:00,
2013-08-08 09:02:00,77.1,62.1,29.89,WNW,300,0.0,0.0,60,0.00,,,0.00,647,Wunderground v.1.15,2013-08-08 16:02:00,
2013-08-08 09:08:00,77.5,59.0,29.89,WNW,300,0.0,1.0,53,0.00,,,0.00,663,Wunderground v.1.15,2013-08-08 16:08:00,
2013-08-08 09:13:00,78.1,61.1,29.89,WNW,300,0.0,1.0,56,0.00,,,0.00,677,Wunderground v.1.15,2013-08-08 16:13:00,
2013-08-08 09:17:00,78.5,58.9,29.89,WNW,300,0.0,1.0,51,0.00,,,0.00,694,Wunderground v.1.15,2013-08-08 16:17:00,
2013-08-08 09:22:00,78.7,56.8,29.89,WNW,300,0.0,0.0,47,0.00,,,0.00,707,Wunderground v.1.15,2013-08-08 16:22:00,
2013-08-08 09:28:00,79.3,59.0,29.89,WNW,300,0.0,0.0,50,0.00,,,0.00,722,Wunderground v.1.15,2013-08-08 16:28:00,
2013-08-08 09:33:00,79.9,58.5,29.89,WNW,300,0.0,0.0,48,0.00,,,0.00,738,Wunderground v.1.15,2013-08-08 16:33:00,
2013-08-08 09:38:00,80.4,58.3,29.89,WNW,300,0.0,0.0,47,0.00,,,0.00,751,Wunderground v.1.15,2013-08-08 16:38:00,
2013-08-08 09:43:00,80.8,57.5,29.89,WNW,300,0.0,0.0,45,0.00,,,0.00,765,Wunderground v.1.15,2013-08-08 16:43:00,
2013-08-08 09:48:00,81.2,57.8,29.89,WNW,300,0.0,0.0,45,0.00,,,0.00,779,Wunderground v.1.15,2013-08-08 16:48:00,
2013-08-08 09:53:00,81.6,55.6,29.89,WNW,300,0.0,0.0,41,0.00,,,0.00,793,Wunderground v.1.15,2013-08-08 16:53:00,
2013-08-08 09:58:00,82.0,57.9,29.89,WNW,300,0.0,2.0,44,0.00,,,0.00,805,Wunderground v.1.15,2013-08-08 16:58:00,
2013-08-08 10:03:00,82.2,56.8,29.89,WNW,300,0.0,0.0,42,0.00,,,0.00,812,Wunderground v.1.15,2013-08-08 17:03:00,
2013-08-08 10:08:00,82.4,60.1,29.89,WNW,300,0.0,0.0,47,0.00,,,0.00,826,Wunderground v.1.15,2013-08-08 17:08:00,
2013-08-08 10:13:00,82.7,58.6,29.88,WNW,300,0.0,0.0,44,0.00,,,0.00,838,Wunderground v.1.15,2013-08-08 17:13:00,
2013-08-08 10:18:00,82.9,58.1,29.88,WNW,300,0.0,0.0,43,0.00,,,0.00,851,Wunderground v.1.15,2013-08-08 17:18:00,
2013-08-08 10:23:00,83.3,59.7,29.88,WNW,300,0.0,0.0,45,0.00,,,0.00,861,Wunderground v.1.15,2013-08-08 17:23:00,
2013-08-08 10:28:00,83.6,56.7,29.88,WNW,300,0.0,0.0,40,0.00,,,0.00,874,Wunderground v.1.15,2013-08-08 17:28:00,
2013-08-08 10:32:00,83.9,56.3,29.88,WNW,300,0.0,0.0,39,0.00,,,0.00,882,Wunderground v.1.15,2013-08-08 17:32:00,
2013-08-08 10:37:00,84.1,53.5,29.88,WNW,300,0.0,1.0,35,0.00,,,0.00,893,Wunderground v.1.15,2013-08-08 17:37:00,
2013-08-08 10:42:00,84.2,54.4,29.88,WNW,300,0.0,0.0,36,0.00,,,0.00,902,Wunderground v.1.15,2013-08-08 17:42:00,
2013-08-08 10:47:00,84.4,55.3,29.88,WNW,300,0.0,0.0,37,0.00,,,0.00,909,Wunderground v.1.15,2013-08-08 17:47:00,
2013-08-08 10:52:00,84.7,56.3,29.88,WNW,300,0.0,0.0,38,0.00,,,0.00,919,Wunderground v.1.15,2013-08-08 17:52:00,
2013-08-08 10:57:00,85.1,56.6,29.88,WNW,300,0.0,1.0,38,0.00,,,0.00,928,Wunderground v.1.15,2013-08-08 17:57:00,
2013-08-08 11:02:00,85.3,55.3,29.88,WNW,300,1.0,2.0,36,0.00,,,0.00,937,Wunderground v.1.15,2013-08-08 18:02:00,
2013-08-08 11:07:00,85.4,55.4,29.88,WNW,300,0.0,2.0,36,0.00,,,0.00,942,Wunderground v.1.15,2013-08-08 18:07:00,
2013-08-08 11:12:00,85.8,55.8,29.87,WNW,299,0.0,0.0,36,0.00,,,0.00,947,Wunderground v.1.15,2013-08-08 18:12:00,
2013-08-08 11:18:00,86.1,52.8,29.87,WNW,300,0.0,0.0,32,0.00,,,0.00,954,Wunderground v.1.15,2013-08-08 18:18:00,
2013-08-08 11:23:00,86.3,55.4,29.87,WNW,300,4.0,4.0,35,0.00,,,0.00,962,Wunderground v.1.15,2013-08-08 18:23:00,
2013-08-08 11:28:00,86.2,52.9,29.87,WNW,300,0.0,4.0,32,0.00,,,0.00,967,Wunderground v.1.15,2013-08-08 18:28:00,
2013-08-08 11:33:00,86.2,52.9,29.87,WNW,300,1.0,4.0,32,0.00,,,0.00,972,Wunderground v.1.15,2013-08-08 18:33:00,
2013-08-08 11:37:00,86.2,54.5,29.86,WNW,300,0.0,4.0,34,0.00,,,0.00,976,Wunderground v.1.15,2013-08-08 18:37:00,
2013-08-08 11:43:00,86.3,54.6,29.86,WNW,300,0.0,3.0,34,0.00,,,0.00,984,Wunderground v.1.15,2013-08-08 18:43:00,
2013-08-08 11:48:00,86.5,57.1,29.86,WNW,300,0.0,4.0,37,0.00,,,0.00,981,Wunderground v.1.15,2013-08-08 18:48:00,
2013-08-08 11:53:00,86.7,55.0,29.86,WNW,300,0.0,0.0,34,0.00,,,0.00,986,Wunderground v.1.15,2013-08-08 18:53:00,
2013-08-08 11:58:00,86.8,57.4,29.86,WNW,299,0.0,7.0,37,0.00,,,0.00,984,Wunderground v.1.15,2013-08-08 18:58:00,
2013-08-08 12:03:00,86.7,55.0,29.86,WNW,300,0.0,4.0,34,0.00,,,0.00,988,Wunderground v.1.15,2013-08-08 19:03:00,
2013-08-08 12:08:00,86.3,53.8,29.86,WNW,300,0.0,5.0,33,0.00,,,0.00,986,Wunderground v.1.15,2013-08-08 19:08:00,
2013-08-08 12:13:00,86.3,58.4,29.86,WNW,300,0.0,1.0,39,0.00,,,0.00,988,Wunderground v.1.15,2013-08-08 19:13:00,
2013-08-08 12:18:00,86.6,57.2,29.86,WNW,300,0.0,10.0,37,0.00,,,0.00,990,Wunderground v.1.15,2013-08-08 19:18:00,
2013-08-08 12:23:00,86.8,55.9,29.85,WNW,300,0.0,1.0,35,0.00,,,0.00,991,Wunderground v.1.15,2013-08-08 19:23:00,
2013-08-08 12:28:00,87.0,56.8,29.85,WNW,300,0.0,1.0,36,0.00,,,0.00,988,Wunderground v.1.15,2013-08-08 19:28:00,
2013-08-08 12:33:00,87.2,56.2,29.85,WNW,300,0.0,0.0,35,0.00,,,0.00,993,Wunderground v.1.15,2013-08-08 19:33:00,
2013-08-08 12:39:00,87.4,53.9,29.85,WNW,300,0.0,4.0,32,0.00,,,0.00,990,Wunderground v.1.15,2013-08-08 19:39:00,
2013-08-08 12:44:00,87.5,54.0,29.85,WNW,300,5.0,5.0,32,0.00,,,0.00,991,Wunderground v.1.15,2013-08-08 19:44:00,
2013-08-08 12:49:00,87.4,57.2,29.85,WNW,300,0.0,5.0,36,0.00,,,0.00,993,Wunderground v.1.15,2013-08-08 19:49:00,
2013-08-08 12:54:00,87.4,54.8,29.85,WNW,300,0.0,1.0,33,0.00,,,0.00,995,Wunderground v.1.15,2013-08-08 19:54:00,
2013-08-08 12:59:00,87.5,54.0,29.85,WNW,300,0.0,4.0,32,0.00,,,0.00,988,Wunderground v.1.15,2013-08-08 19:59:00,
2013-08-08 13:04:00,87.5,53.1,29.85,WNW,300,8.0,8.0,31,0.00,,,0.00,984,Wunderground v.1.15,2013-08-08 20:04:00,
2013-08-08 13:09:00,87.5,57.3,29.85,WNW,300,0.0,8.0,36,0.00,,,0.00,983,Wunderground v.1.15,2013-08-08 20:09:00,
2013-08-08 13:14:00,87.8,57.5,29.84,WNW,300,0.0,2.0,36,0.00,,,0.00,981,Wunderground v.1.15,2013-08-08 20:14:00,
2013-08-08 13:19:00,87.9,56.0,29.84,WNW,299,3.0,9.0,34,0.00,,,0.00,986,Wunderground v.1.15,2013-08-08 20:19:00,
2013-08-08 13:24:00,87.9,57.6,29.84,WNW,300,0.0,9.0,36,0.00,,,0.00,976,Wunderground v.1.15,2013-08-08 20:24:00,
2013-08-08 13:29:00,88.0,56.9,29.84,WNW,300,0.0,9.0,35,0.00,,,0.00,993,Wunderground v.1.15,2013-08-08 20:29:00,
2013-08-08 13:34:00,87.9,55.2,29.83,WNW,300,0.0,1.0,33,0.00,,,0.00,1011,Wunderground v.1.15,2013-08-08 20:34:00,
2013-08-08 13:39:00,88.1,56.2,29.83,WNW,299,1.0,2.0,34,0.00,,,0.00,1027,Wunderground v.1.15,2013-08-08 20:39:00,
2013-08-08 13:44:00,88.2,56.3,29.83,WNW,300,0.0,1.0,34,0.00,,,0.00,979,Wunderground v.1.15,2013-08-08 20:44:00,
2013-08-08 13:49:00,88.4,56.5,29.83,WNW,300,0.0,2.0,34,0.00,,,0.00,991,Wunderground v.1.15,2013-08-08 20:49:00,
2013-08-08 13:54:00,88.6,58.2,29.83,WNW,299,1.0,8.0,36,0.00,,,0.00,1034,Wunderground v.1.15,2013-08-08 20:54:00,
2013-08-08 13:59:00,88.6,55.8,29.82,WNW,299,3.0,8.0,33,0.00,,,0.00,1056,Wunderground v.1.15,2013-08-08 20:59:00,
2013-08-08 14:04:00,88.4,55.6,29.82,WNW,300,4.0,4.0,33,0.00,,,0.00,193,Wunderground v.1.15,2013-08-08 21:04:00,
2013-08-08 14:09:00,88.0,58.5,29.82,WNW,300,0.0,4.0,37,0.00,,,0.00,1058,Wunderground v.1.15,2013-08-08 21:09:00,
2013-08-08 14:15:00,87.9,57.6,29.82,WNW,300,0.0,1.0,36,0.00,,,0.00,868,Wunderground v.1.15,2013-08-08 21:15:00,
2013-08-08 14:20:00,87.9,56.8,29.82,WNW,300,0.0,0.0,35,0.00,,,0.00,1028,Wunderground v.1.15,2013-08-08 21:20:00,
2013-08-08 14:25:00,88.2,57.1,29.82,WNW,299,0.0,0.0,35,0.00,,,0.00,1032,Wunderground v.1.15,2013-08-08 21:25:00,
2013-08-08 14:30:00,88.2,54.6,29.82,WNW,299,2.0,2.0,32,0.00,,,0.00,1042,Wunderground v.1.15,2013-08-08 21:30:00,
2013-08-08 14:35:00,88.3,53.8,29.82,WNW,300,0.0,2.0,31,0.00,,,0.00,216,Wunderground v.1.15,2013-08-08 21:35:00,
2013-08-08 14:40:00,88.1,52.8,29.81,WNW,300,0.0,1.0,30,0.00,,,0.00,237,Wunderground v.1.15,2013-08-08 21:40:00,
2013-08-08 14:46:00,87.8,55.9,29.81,WNW,299,0.0,1.0,34,0.00,,,0.00,179,Wunderground v.1.15,2013-08-08 21:46:00,
2013-08-08 14:51:00,87.5,54.0,29.81,WNW,300,0.0,0.0,32,0.00,,,0.00,186,Wunderground v.1.15,2013-08-08 21:51:00,
2013-08-08 14:56:00,87.1,54.5,29.81,WNW,300,0.0,0.0,33,0.00,,,0.00,232,Wunderground v.1.15,2013-08-08 21:56:00,
2013-08-08 15:01:00,87.2,57.0,29.81,WNW,299,0.0,0.0,36,0.00,,,0.00,891,Wunderground v.1.15,2013-08-08 22:01:00,
2013-08-08 15:07:00,87.4,54.8,29.80,WNW,287,0.0,9.0,33,0.00,,,0.00,833,Wunderground v.1.15,2013-08-08 22:07:00,
2013-08-08 15:12:00,87.8,56.7,29.80,WNW,286,0.0,7.0,35,0.00,,,0.00,826,Wunderground v.1.15,2013-08-08 22:12:00,
2013-08-08 15:17:00,88.1,54.5,29.80,WNW,284,0.0,7.0,32,0.00,,,0.00,851,Wunderground v.1.15,2013-08-08 22:17:00,
2013-08-08 15:22:00,88.5,55.7,29.80,WNW,282,0.0,4.0,33,0.00,,,0.00,830,Wunderground v.1.15,2013-08-08 22:22:00,
2013-08-08 15:28:00,88.8,57.6,29.79,West,278,2.0,8.0,35,0.00,,,0.00,814,Wunderground v.1.15,2013-08-08 22:28:00,
2013-08-08 15:33:00,89.0,55.3,29.79,West,278,0.0,1.0,32,0.00,,,0.00,791,Wunderground v.1.15,2013-08-08 22:33:00,
2013-08-08 15:38:00,89.0,57.0,29.79,West,278,0.0,6.0,34,0.00,,,0.00,788,Wunderground v.1.15,2013-08-08 22:38:00,
2013-08-08 15:43:00,89.2,56.3,29.79,West,275,2.0,4.0,33,0.00,,,0.00,193,Wunderground v.1.15,2013-08-08 22:43:00,
2013-08-08 15:48:00,88.7,55.9,29.79,West,274,0.0,6.0,33,0.00,,,0.00,260,Wunderground v.1.15,2013-08-08 22:48:00,
2013-08-08 15:53:00,88.7,56.7,29.79,West,274,0.0,1.0,34,0.00,,,0.00,789,Wunderground v.1.15,2013-08-08 22:53:00,
2013-08-08 15:58:00,88.7,55.9,29.79,West,274,0.0,1.0,33,0.00,,,0.00,742,Wunderground v.1.15,2013-08-08 22:58:00,
2013-08-08 16:03:00,88.8,57.6,29.79,West,274,0.0,0.0,35,0.00,,,0.00,615,Wunderground v.1.15,2013-08-08 23:03:00,
2013-08-08 16:09:00,89.0,57.0,29.79,West,274,0.0,0.0,34,0.00,,,0.00,668,Wunderground v.1.15,2013-08-08 23:09:00,
2013-08-08 16:14:00,89.3,53.8,29.79,West,274,0.0,0.0,30,0.00,,,0.00,647,Wunderground v.1.15,2013-08-08 23:14:00,
2013-08-08 16:19:00,89.3,54.7,29.78,West,274,0.0,2.0,31,0.00,,,0.00,599,Wunderground v.1.15,2013-08-08 23:19:00,
2013-08-08 16:24:00,89.5,54.0,29.78,West,274,0.0,0.0,30,0.00,,,0.00,570,Wunderground v.1.15,2013-08-08 23:24:00,
2013-08-08 16:29:00,89.6,52.2,29.78,West,274,0.0,0.0,28,0.00,,,0.00,550,Wunderground v.1.15,2013-08-08 23:29:00,
2013-08-08 16:34:00,89.5,54.0,29.78,West,274,0.0,2.0,30,0.00,,,0.00,91,Wunderground v.1.15,2013-08-08 23:34:00,
2013-08-08 16:39:00,89.4,53.9,29.78,West,274,0.0,3.0,30,0.00,,,0.00,524,Wunderground v.1.15,2013-08-08 23:39:00,
2013-08-08 16:44:00,89.1,52.7,29.78,West,274,0.0,1.0,29,0.00,,,0.00,517,Wunderground v.1.15,2013-08-08 23:44:00,
2013-08-08 16:49:00,89.0,53.5,29.78,West,274,0.0,1.0,30,0.00,,,0.00,443,Wunderground v.1.15,2013-08-08 23:49:00,
2013-08-08 16:54:00,88.9,53.5,29.78,West,274,0.0,0.0,30,0.00,,,0.00,156,Wunderground v.1.15,2013-08-08 23:54:00,
2013-08-08 16:59:00,88.7,56.7,29.78,West,274,0.0,0.0,34,0.00,,,0.00,137,Wunderground v.1.15,2013-08-08 23:59:00,
2013-08-08 17:05:00,88.4,57.3,29.78,West,274,0.0,0.0,35,0.00,,,0.00,318,Wunderground v.1.15,2013-08-09 00:05:00,
2013-08-08 17:10:00,88.1,51.8,29.77,West,274,0.0,0.0,29,0.00,,,0.00,446,Wunderground v.1.15,2013-08-09 00:10:00,
2013-08-08 17:15:00,88.1,55.4,29.77,West,274,0.0,0.0,33,0.00,,,0.00,380,Wunderground v.1.15,2013-08-09 00:15:00,
2013-08-08 17:22:00,87.9,55.2,29.77,West,274,0.0,0.0,33,0.00,,,0.00,83,Wunderground v.1.15,2013-08-09 00:22:00,
2013-08-08 17:27:00,87.7,56.7,29.77,West,274,0.0,0.0,35,0.00,,,0.00,62,Wunderground v.1.15,2013-08-09 00:27:00,
2013-08-08 17:32:00,87.3,55.5,29.77,West,274,0.0,0.0,34,0.00,,,0.00,58,Wunderground v.1.15,2013-08-09 00:32:00,
2013-08-08 17:38:00,86.9,53.5,29.77,West,274,0.0,0.0,32,0.00,,,0.00,123,Wunderground v.1.15,2013-08-09 00:38:00,
2013-08-08 17:42:00,86.5,56.4,29.77,West,274,0.0,0.0,36,0.00,,,0.00,279,Wunderground v.1.15,2013-08-09 00:42:00,
2013-08-08 17:48:00,86.4,54.7,29.77,West,274,0.0,0.0,34,0.00,,,0.00,211,Wunderground v.1.15,2013-08-09 00:48:00,
2013-08-08 17:53:00,86.3,55.4,29.77,West,274,0.0,0.0,35,0.00,,,0.00,255,Wunderground v.1.15,2013-08-09 00:53:00,
2013-08-08 17:58:00,86.4,56.3,29.76,West,274,0.0,0.0,36,0.00,,,0.00,232,Wunderground v.1.15,2013-08-09 00:58:00,
2013-08-08 18:03:00,86.5,54.8,29.77,West,274,0.0,0.0,34,0.00,,,0.00,179,Wunderground v.1.15,2013-08-09 01:03:00,
2013-08-08 18:08:00,86.5,54.8,29.76,West,274,0.0,0.0,34,0.00,,,0.00,176,Wunderground v.1.15,2013-08-09 01:08:00,
2013-08-08 18:14:00,86.6,56.5,29.76,West,274,0.0,0.0,36,0.00,,,0.00,148,Wunderground v.1.15,2013-08-09 01:14:00,
2013-08-08 18:19:00,86.6,54.9,29.76,West,274,0.0,0.0,34,0.00,,,0.00,128,Wunderground v.1.15,2013-08-09 01:19:00,
2013-08-08 18:25:00,86.6,55.7,29.77,West,274,0.0,0.0,35,0.00,,,0.00,111,Wunderground v.1.15,2013-08-09 01:25:00,
2013-08-08 18:30:00,86.6,56.5,29.76,West,274,0.0,0.0,36,0.00,,,0.00,84,Wunderground v.1.15,2013-08-09 01:30:00,
2013-08-08 18:35:00,86.5,55.6,29.76,West,274,0.0,0.0,35,0.00,,,0.00,62,Wunderground v.1.15,2013-08-09 01:35:00,
2013-08-08 18:40:00,86.3,56.2,29.76,West,274,0.0,0.0,36,0.00,,,0.00,67,Wunderground v.1.15,2013-08-09 01:40:00,
2013-08-08 18:45:00,85.9,55.1,29.76,West,274,0.0,0.0,35,0.00,,,0.00,47,Wunderground v.1.15,2013-08-09 01:45:00,
2013-08-08 18:51:00,85.6,57.1,29.76,West,274,0.0,0.0,38,0.00,,,0.00,30,Wunderground v.1.15,2013-08-09 01:51:00,
2013-08-08 18:56:00,85.3,57.5,29.76,West,274,0.0,0.0,39,0.00,,,0.00,19,Wunderground v.1.15,2013-08-09 01:56:00,
2013-08-08 19:01:00,85.0,57.3,29.76,West,274,0.0,0.0,39,0.00,,,0.00,12,Wunderground v.1.15,2013-08-09 02:01:00,
2013-08-08 19:06:00,84.7,58.4,29.76,West,274,0.0,0.0,41,0.00,,,0.00,9,Wunderground v.1.15,2013-08-09 02:06:00,
2013-08-08 19:11:00,84.3,58.0,29.76,West,274,0.0,0.0,41,0.00,,,0.00,5,Wunderground v.1.15,2013-08-09 02:11:00,
2013-08-08 19:16:00,83.6,56.7,29.76,West,274,0.0,0.0,40,0.00,,,0.00,0,Wunderground v.1.15,2013-08-09 02:16:00,
2013-08-08 19:21:00,82.9,56.8,29.76,West,274,0.0,0.0,41,0.00,,,0.00,0,Wunderground v.1.15,2013-08-09 02:21:00,
2013-08-08 19:26:00,82.2,56.8,29.77,West,274,0.0,0.0,42,0.00,,,0.00,0,Wunderground v.1.15,2013-08-09 02:26:00,
2013-08-08 19:32:00,81.6,58.2,29.76,West,274,0.0,0.0,45,0.00,,,0.00,0,Wunderground v.1.15,2013-08-09 02:32:00,
2013-08-08 19:37:00,80.9,57.6,29.77,West,274,0.0,0.0,45,0.00,,,0.00,0,Wunderground v.1.15,2013-08-09 02:37:00,
2013-08-08 19:42:00,80.2,57.5,29.77,West,274,0.0,0.0,46,0.00,,,0.00,0,Wunderground v.1.15,2013-08-09 02:42:00,
2013-08-08 19:47:00,79.5,57.5,29.77,West,274,0.0,0.0,47,0.00,,,0.00,0,Wunderground v.1.15,2013-08-09 02:47:00,
2013-08-08 19:52:00,78.8,58.0,29.77,West,274,0.0,0.0,49,0.00,,,0.00,0,Wunderground v.1.15,2013-08-09 02:52:00,
2013-08-08 19:57:00,78.1,57.9,29.77,West,274,0.0,0.0,50,0.00,,,0.00,0,Wunderground v.1.15,2013-08-09 02:57:00,
2013-08-08 20:02:00,77.5,58.5,29.77,West,274,0.0,0.0,52,0.00,,,0.00,0,Wunderground v.1.15,2013-08-09 03:02:00,
2013-08-08 20:07:00,76.9,57.9,29.77,West,274,0.0,0.0,52,0.00,,,0.00,0,Wunderground v.1.15,2013-08-09 03:07:00,
2013-08-08 20:12:00,76.4,58.5,29.78,West,274,0.0,0.0,54,0.00,,,0.00,0,Wunderground v.1.15,2013-08-09 03:12:00,
2013-08-08 20:18:00,75.7,57.9,29.78,West,274,0.0,0.0,54,0.00,,,0.00,0,Wunderground v.1.15,2013-08-09 03:18:00,
2013-08-08 20:23:00,75.2,56.9,29.78,West,274,0.0,0.0,53,0.00,,,0.00,0,Wunderground v.1.15,2013-08-09 03:23:00,
2013-08-08 20:28:00,74.7,56.4,29.78,West,274,0.0,0.0,53,0.00,,,0.00,0,Wunderground v.1.15,2013-08-09 03:28:00,
2013-08-08 20:33:00,74.3,56.6,29.78,West,274,0.0,0.0,54,0.00,,,0.00,0,Wunderground v.1.15,2013-08-09 03:33:00,
2013-08-08 20:38:00,73.9,56.2,29.78,West,274,0.0,0.0,54,0.00,,,0.00,0,Wunderground v.1.15,2013-08-09 03:38:00,
2013-08-08 20:44:00,73.4,56.2,29.78,West,274,0.0,0.0,55,0.00,,,0.00,0,Wunderground v.1.15,2013-08-09 03:44:00,
2013-08-08 20:49:00,73.0,56.9,29.79,West,274,0.0,0.0,57,0.00,,,0.00,0,Wunderground v.1.15,2013-08-09 03:49:00,
2013-08-08 20:54:00,72.5,57.8,29.79,West,274,0.0,0.0,60,0.00,,,0.00,0,Wunderground v.1.15,2013-08-09 03:54:00,
2013-08-08 21:00:00,72.0,56.4,29.79,West,274,0.0,0.0,58,0.00,,,0.00,0,Wunderground v.1.15,2013-08-09 04:00:00,
2013-08-08 21:01:00,72.0,56.4,29.79,West,274,0.0,0.0,58,0.00,,,0.00,0,Wunderground v.1.15,2013-08-09 04:01:00,
2013-08-08 21:06:00,71.6,56.5,29.79,West,274,0.0,0.0,59,0.00,,,0.00,0,Wunderground v.1.15,2013-08-09 04:06:00,
2013-08-08 21:11:00,71.3,56.7,29.80,West,274,0.0,0.0,60,0.00,,,0.00,0,Wunderground v.1.15,2013-08-09 04:11:00,
2013-08-08 21:16:00,71.2,57.1,29.80,West,274,0.0,0.0,61,0.00,,,0.00,0,Wunderground v.1.15,2013-08-09 04:16:00,
2013-08-08 21:21:00,70.9,57.2,29.80,West,274,0.0,0.0,62,0.00,,,0.00,0,Wunderground v.1.15,2013-08-09 04:21:00,
2013-08-08 21:26:00,70.6,56.9,29.80,West,274,0.0,0.0,62,0.00,,,0.00,0,Wunderground v.1.15,2013-08-09 04:26:00,
2013-08-08 21:31:00,70.2,56.6,29.81,West,274,0.0,0.0,62,0.00,,,0.00,0,Wunderground v.1.15,2013-08-09 04:31:00,
2013-08-08 21:36:00,69.9,56.7,29.81,West,274,0.0,0.0,63,0.00,,,0.00,0,Wunderground v.1.15,2013-08-09 04:36:00,
2013-08-08 21:41:00,69.6,56.4,29.80,West,274,0.0,0.0,63,0.00,,,0.00,0,Wunderground v.1.15,2013-08-09 04:41:00,
2013-08-08 21:46:00,69.2,56.1,29.80,West,274,0.0,0.0,63,0.00,,,0.00,0,Wunderground v.1.15,2013-08-09 04:46:00,
2013-08-08 21:51:00,68.9,56.2,29.80,West,274,0.0,0.0,64,0.00,,,0.00,0,Wunderground v.1.15,2013-08-09 04:51:00,
2013-08-08 21:56:00,68.6,55.9,29.81,West,274,0.0,0.0,64,0.00,,,0.00,0,Wunderground v.1.15,2013-08-09 04:56:00,
2013-08-08 22:01:00,68.4,55.7,29.81,West,274,0.0,0.0,64,0.00,,,0.00,0,Wunderground v.1.15,2013-08-09 05:01:00,
2013-08-08 22:06:00,68.1,56.3,29.81,West,274,0.0,0.0,66,0.00,,,0.00,0,Wunderground v.1.15,2013-08-09 05:06:00,
2013-08-08 22:11:00,67.9,56.5,29.81,West,274,0.0,0.0,67,0.00,,,0.00,0,Wunderground v.1.15,2013-08-09 05:11:00,
2013-08-08 22:16:00,67.7,56.3,29.81,West,274,0.0,0.0,67,0.00,,,0.00,0,Wunderground v.1.15,2013-08-09 05:16:00,
2013-08-08 22:21:00,67.5,56.2,29.81,West,274,0.0,0.0,67,0.00,,,0.00,0,Wunderground v.1.15,2013-08-09 05:21:00,
2013-08-08 22:26:00,67.3,56.0,29.81,West,274,0.0,0.0,67,0.00,,,0.00,0,Wunderground v.1.15,2013-08-09 05:26:00,
2013-08-08 22:31:00,67.0,56.1,29.81,West,274,0.0,0.0,68,0.00,,,0.00,0,Wunderground v.1.15,2013-08-09 05:31:00,
2013-08-08 22:36:00,66.8,56.3,29.81,West,274,0.0,0.0,69,0.00,,,0.00,0,Wunderground v.1.15,2013-08-09 05:36:00,
2013-08-08 22:41:00,66.6,56.1,29.81,West,274,0.0,0.0,69,0.00,,,0.00,0,Wunderground v.1.15,2013-08-09 05:41:00,
2013-08-08 22:46:00,66.3,56.2,29.81,West,274,0.0,0.0,70,0.00,,,0.00,0,Wunderground v.1.15,2013-08-09 05:46:00,
2013-08-08 22:51:00,66.1,56.0,29.81,West,274,0.0,0.0,70,0.00,,,0.00,0,Wunderground v.1.15,2013-08-09 05:51:00,
2013-08-08 22:56:00,65.9,55.8,29.81,West,274,0.0,0.0,70,0.00,,,0.00,0,Wunderground v.1.15,2013-08-09 05:56:00,
2013-08-08 23:01:00,65.7,56.0,29.81,West,274,0.0,0.0,71,0.00,,,0.00,0,Wunderground v.1.15,2013-08-09 06:01:00,
2013-08-08 23:06:00,65.6,56.3,29.81,West,274,0.0,0.0,72,0.00,,,0.00,0,Wunderground v.1.15,2013-08-09 06:06:00,
2013-08-08 23:11:00,65.4,56.1,29.81,West,274,0.0,0.0,72,0.00,,,0.00,0,Wunderground v.1.15,2013-08-09 06:11:00,
2013-08-08 23:16:00,65.2,55.9,29.81,West,274,0.0,0.0,72,0.00,,,0.00,0,Wunderground v.1.15,2013-08-09 06:16:00,
2013-08-08 23:21:00,65.0,56.1,29.81,West,274,0.0,0.0,73,0.00,,,0.00,0,Wunderground v.1.15,2013-08-09 06:21:00,
2013-08-08 23:26:00,64.8,55.9,29.81,West,274,0.0,0.0,73,0.00,,,0.00,0,Wunderground v.1.15,2013-08-09 06:26:00,
2013-08-08 23:31:00,64.6,55.7,29.81,West,274,0.0,0.0,73,0.00,,,0.00,0,Wunderground v.1.15,2013-08-09 06:31:00,
2013-08-08 23:36:00,64.5,55.7,29.81,West,274,0.0,0.0,73,0.00,,,0.00,0,Wunderground v.1.15,2013-08-09 06:36:00,
2013-08-08 23:41:00,64.3,55.5,29.81,West,274,0.0,0.0,73,0.00,,,0.00,0,Wunderground v.1.15,2013-08-09 06:41:00,
2013-08-08 23:46:00,64.2,55.7,29.81,West,274,0.0,0.0,74,0.00,,,0.00,0,Wunderground v.1.15,2013-08-09 06:46:00,
2013-08-08 23:51:00,64.0,55.5,29.81,West,274,0.0,0.0,74,0.00,,,0.00,0,Wunderground v.1.15,2013-08-09 06:51:00,
2013-08-08 23:56:00,63.8,55.7,29.81,West,274,0.0,0.0,75,0.00,,,0.00,0,Wunderground v.1.15,2013-08-09 06:56:00,